Terminal Aerodrome Forecast
Issued by NWS Mt. Holly, NJ

Home | Current Version | Previous Version | Text Only | Print | Product List | Glossary On
Versions: 1 2 3 4 5 6 7 8 9 10 11 12 13 14 15 16 17 18 19 20 21 22 23 24 25 26 27 28
000
FTUS41 KPHI 040903 AAA
TAFRDG
TAF AMD
KRDG 040903Z 0409/0506 VRB03KT 4SM BR SCT015 OVC080
      TEMPO 0409/0413 2SM -RADZ OVC015
     FM041300 VRB03KT 4SM -SHRA BR OVC010
     FM042200 28004KT 4SM -RA BR OVC005
     FM050200 32006KT 2SM -PL BR OVC005=

USA.gov is the U.S. government's official web portal to all federal, state and local government web resources and services.